sensor_id;sensor_type;location;lat;lon;timestamp;P1;durP1;ratioP1;P2;durP2;ratioP2
1054;SDS011;516;51.482;7.120;2023-03-01T00:03:35;24.93;;;21.77;;
1054;SDS011;516;51.482;7.120;2023-03-01T00:09:24;26.00;;;23.23;;
1054;SDS011;516;51.482;7.120;2023-03-01T00:25:05;24.00;;;21.70;;
1054;SDS011;516;51.482;7.120;2023-03-01T00:30:53;25.53;;;22.83;;
1054;SDS011;516;51.482;7.120;2023-03-01T00:36:41;25.07;;;22.63;;
1054;SDS011;516;51.482;7.120;2023-03-01T00:42:29;21.97;;;19.80;;
1054;SDS011;516;51.482;7.120;2023-03-01T00:48:17;24.80;;;22.20;;
1054;SDS011;516;51.482;7.120;2023-03-01T00:54:05;24.47;;;21.77;;
1054;SDS011;516;51.482;7.120;2023-03-01T00:59:52;24.50;;;21.67;;
1054;SDS011;516;51.482;7.120;2023-03-01T01:05:40;24.23;;;21.10;;
1054;SDS011;516;51.482;7.120;2023-03-01T01:11:28;21.97;;;19.80;;
1054;SDS011;516;51.482;7.120;2023-03-01T01:17:13;24.53;;;22.03;;
1054;SDS011;516;51.482;7.120;2023-03-01T01:23:01;24.30;;;21.67;;
1054;SDS011;516;51.482;7.120;2023-03-01T01:28:49;25.93;;;22.63;;
1054;SDS011;516;51.482;7.120;2023-03-01T01:34:37;23.97;;;21.47;;
1054;SDS011;516;51.482;7.120;2023-03-01T01:40:25;24.80;;;22.40;;
1054;SDS011;516;51.482;7.120;2023-03-01T01:52:20;27.83;;;23.63;;
1054;SDS011;516;51.482;7.120;2023-03-01T01:58:13;28.40;;;23.53;;
1054;SDS011;516;51.482;7.120;2023-03-01T02:04:04;26.13;;;21.23;;
1054;SDS011;516;51.482;7.120;2023-03-01T02:09:53;23.40;;;21.00;;
1054;SDS011;516;51.482;7.120;2023-03-01T02:31:20;22.53;;;20.03;;
1054;SDS011;516;51.482;7.120;2023-03-01T02:37:26;22.80;;;20.50;;
1054;SDS011;516;51.482;7.120;2023-03-01T02:43:15;19.73;;;17.80;;
1054;SDS011;516;51.482;7.120;2023-03-01T02:49:16;21.70;;;18.87;;
1054;SDS011;516;51.482;7.120;2023-03-01T02:55:42;19.37;;;17.47;;
1054;SDS011;516;51.482;7.120;2023-03-01T03:01:30;20.20;;;18.40;;
1054;SDS011;516;51.482;7.120;2023-03-01T03:07:24;20.80;;;18.80;;
1054;SDS011;516;51.482;7.120;2023-03-01T03:13:12;22.77;;;20.33;;
1054;SDS011;516;51.482;7.120;2023-03-01T03:19:01;21.90;;;19.17;;
1054;SDS011;516;51.482;7.120;2023-03-01T03:24:52;21.80;;;19.60;;
1054;SDS011;516;51.482;7.120;2023-03-01T03:30:40;22.30;;;20.10;;
1054;SDS011;516;51.482;7.120;2023-03-01T03:36:28;19.77;;;17.87;;
1054;SDS011;516;51.482;7.120;2023-03-01T03:42:16;22.37;;;19.83;;
1054;SDS011;516;51.482;7.120;2023-03-01T03:48:05;19.00;;;16.90;;
1054;SDS011;516;51.482;7.120;2023-03-01T03:53:35;20.67;;;18.57;;
1054;SDS011;516;51.482;7.120;2023-03-01T03:59:22;26.67;;;18.73;;
1054;SDS011;516;51.482;7.120;2023-03-01T04:05:11;20.60;;;18.03;;
1054;SDS011;516;51.482;7.120;2023-03-01T04:11:03;23.50;;;21.00;;
1054;SDS011;516;51.482;7.120;2023-03-01T04:17:10;20.70;;;18.57;;
1054;SDS011;516;51.482;7.120;2023-03-01T04:22:59;22.23;;;19.93;;
1054;SDS011;516;51.482;7.120;2023-03-01T04:28:54;24.47;;;19.43;;
1054;SDS011;516;51.482;7.120;2023-03-01T04:34:42;20.20;;;18.10;;
1054;SDS011;516;51.482;7.120;2023-03-01T04:40:28;20.27;;;18.13;;
1054;SDS011;516;51.482;7.120;2023-03-01T04:49:36;23.23;;;20.73;;
1054;SDS011;516;51.482;7.120;2023-03-01T04:55:27;23.77;;;19.17;;
1054;SDS011;516;51.482;7.120;2023-03-01T05:01:18;21.43;;;19.20;;
1054;SDS011;516;51.482;7.120;2023-03-01T05:07:06;23.60;;;18.73;;
1054;SDS011;516;51.482;7.120;2023-03-01T05:12:54;19.17;;;17.30;;
1054;SDS011;516;51.482;7.120;2023-03-01T05:22:06;23.87;;;19.07;;
1054;SDS011;516;51.482;7.120;2023-03-01T05:27:53;23.20;;;19.87;;
1054;SDS011;516;51.482;7.120;2023-03-01T05:33:41;28.00;;;20.30;;
1054;SDS011;516;51.482;7.120;2023-03-01T05:39:29;22.40;;;20.10;;
1054;SDS011;516;51.482;7.120;2023-03-01T05:45:16;22.37;;;19.10;;
1054;SDS011;516;51.482;7.120;2023-03-01T05:51:05;22.73;;;19.27;;
1054;SDS011;516;51.482;7.120;2023-03-01T05:56:53;19.43;;;17.27;;
1054;SDS011;516;51.482;7.120;2023-03-01T06:02:41;25.83;;;20.60;;
1054;SDS011;516;51.482;7.120;2023-03-01T06:08:28;27.17;;;20.93;;
1054;SDS011;516;51.482;7.120;2023-03-01T06:14:16;21.20;;;18.40;;
1054;SDS011;516;51.482;7.120;2023-03-01T06:20:02;25.20;;;19.33;;
1054;SDS011;516;51.482;7.120;2023-03-01T06:25:51;23.93;;;18.77;;
1054;SDS011;516;51.482;7.120;2023-03-01T06:31:39;23.50;;;21.07;;
1054;SDS011;516;51.482;7.120;2023-03-01T06:37:27;22.23;;;20.13;;
1054;SDS011;516;51.482;7.120;2023-03-01T06:43:15;25.43;;;21.70;;
1054;SDS011;516;51.482;7.120;2023-03-01T06:49:02;25.90;;;20.50;;
1054;SDS011;516;51.482;7.120;2023-03-01T06:54:54;26.47;;;21.53;;
1054;SDS011;516;51.482;7.120;2023-03-01T07:00:42;26.47;;;20.60;;
1054;SDS011;516;51.482;7.120;2023-03-01T07:06:30;26.03;;;22.23;;
1054;SDS011;516;51.482;7.120;2023-03-01T07:12:17;24.63;;;21.93;;
1054;SDS011;516;51.482;7.120;2023-03-01T07:27:56;35.80;;;25.50;;
1054;SDS011;516;51.482;7.120;2023-03-01T07:33:43;36.43;;;25.37;;
1054;SDS011;516;51.482;7.120;2023-03-01T07:39:31;28.27;;;25.37;;
1054;SDS011;516;51.482;7.120;2023-03-01T07:45:19;26.23;;;24.03;;
1054;SDS011;516;51.482;7.120;2023-03-01T07:51:07;25.93;;;23.13;;
1054;SDS011;516;51.482;7.120;2023-03-01T07:56:54;28.50;;;25.70;;
1054;SDS011;516;51.482;7.120;2023-03-01T08:02:43;26.67;;;24.63;;
1054;SDS011;516;51.482;7.120;2023-03-01T08:08:32;29.63;;;27.03;;
1054;SDS011;516;51.482;7.120;2023-03-01T08:14:20;27.20;;;24.63;;
1054;SDS011;516;51.482;7.120;2023-03-01T08:20:18;27.00;;;24.40;;
1054;SDS011;516;51.482;7.120;2023-03-01T08:26:15;26.70;;;24.70;;
1054;SDS011;516;51.482;7.120;2023-03-01T08:32:50;24.70;;;23.00;;
1054;SDS011;516;51.482;7.120;2023-03-01T08:38:38;26.10;;;23.93;;
1054;SDS011;516;51.482;7.120;2023-03-01T08:44:25;25.17;;;22.93;;
1054;SDS011;516;51.482;7.120;2023-03-01T08:50:12;24.50;;;22.73;;
1054;SDS011;516;51.482;7.120;2023-03-01T08:56:01;23.93;;;22.13;;
1054;SDS011;516;51.482;7.120;2023-03-01T09:01:49;23.80;;;21.87;;
1054;SDS011;516;51.482;7.120;2023-03-01T09:07:36;23.27;;;21.67;;
1054;SDS011;516;51.482;7.120;2023-03-01T09:13:24;23.20;;;21.60;;
1054;SDS011;516;51.482;7.120;2023-03-01T09:22:33;23.60;;;22.00;;
1054;SDS011;516;51.482;7.120;2023-03-01T09:28:03;21.90;;;19.97;;
1054;SDS011;516;51.482;7.120;2023-03-01T09:33:51;22.20;;;20.50;;
1054;SDS011;516;51.482;7.120;2023-03-01T09:39:40;22.20;;;20.77;;
1054;SDS011;516;51.482;7.120;2023-03-01T09:45:30;21.23;;;19.93;;
1054;SDS011;516;51.482;7.120;2023-03-01T09:51:40;20.67;;;19.40;;
1054;SDS011;516;51.482;7.120;2023-03-01T10:10:08;22.27;;;20.67;;
1054;SDS011;516;51.482;7.120;2023-03-01T10:16:33;22.40;;;20.60;;
1054;SDS011;516;51.482;7.120;2023-03-01T10:23:02;20.90;;;19.70;;
1054;SDS011;516;51.482;7.120;2023-03-01T10:34:47;20.30;;;19.00;;
1054;SDS011;516;51.482;7.120;2023-03-01T10:40:35;21.13;;;19.77;;
1054;SDS011;516;51.482;7.120;2023-03-01T10:47:01;21.87;;;20.27;;
1054;SDS011;516;51.482;7.120;2023-03-01T10:59:37;20.17;;;18.87;;
1054;SDS011;516;51.482;7.120;2023-03-01T11:05:25;20.73;;;19.43;;
1054;SDS011;516;51.482;7.120;2023-03-01T11:11:18;19.13;;;17.93;;
1054;SDS011;516;51.482;7.120;2023-03-01T11:17:12;20.83;;;19.40;;
1054;SDS011;516;51.482;7.120;2023-03-01T11:26:23;20.67;;;19.07;;
1054;SDS011;516;51.482;7.120;2023-03-01T11:32:10;19.00;;;17.90;;
1054;SDS011;516;51.482;7.120;2023-03-01T11:44:33;19.80;;;18.10;;
1054;SDS011;516;51.482;7.120;2023-03-01T11:50:40;20.10;;;18.90;;
1054;SDS011;516;51.482;7.120;2023-03-01T12:34:12;22.37;;;20.77;;
1054;SDS011;516;51.482;7.120;2023-03-01T12:46:52;21.60;;;20.10;;
1054;SDS011;516;51.482;7.120;2023-03-01T12:59:15;22.33;;;20.30;;
1054;SDS011;516;51.482;7.120;2023-03-01T13:12:49;19.50;;;18.30;;
1054;SDS011;516;51.482;7.120;2023-03-01T13:32:21;20.87;;;19.43;;
1054;SDS011;516;51.482;7.120;2023-03-01T13:44:33;19.70;;;18.40;;
1054;SDS011;516;51.482;7.120;2023-03-01T13:50:27;19.43;;;18.13;;
1054;SDS011;516;51.482;7.120;2023-03-01T13:56:27;21.60;;;19.80;;
1054;SDS011;516;51.482;7.120;2023-03-01T14:02:16;21.60;;;20.20;;
1054;SDS011;516;51.482;7.120;2023-03-01T14:08:05;22.10;;;20.60;;
1054;SDS011;516;51.482;7.120;2023-03-01T14:14:28;22.70;;;20.90;;
1054;SDS011;516;51.482;7.120;2023-03-01T14:20:54;20.93;;;19.53;;
1054;SDS011;516;51.482;7.120;2023-03-01T14:26:42;22.40;;;20.70;;
1054;SDS011;516;51.482;7.120;2023-03-01T14:32:31;22.23;;;20.60;;
1054;SDS011;516;51.482;7.120;2023-03-01T14:38:23;23.73;;;21.40;;
1054;SDS011;516;51.482;7.120;2023-03-01T14:44:53;22.87;;;21.27;;
1054;SDS011;516;51.482;7.120;2023-03-01T14:50:43;21.87;;;20.27;;
1054;SDS011;516;51.482;7.120;2023-03-01T14:56:43;23.53;;;21.90;;
1054;SDS011;516;51.482;7.120;2023-03-01T15:03:13;21.77;;;20.13;;
1054;SDS011;516;51.482;7.120;2023-03-01T15:09:25;22.80;;;21.20;;
1054;SDS011;516;51.482;7.120;2023-03-01T15:15:21;21.63;;;19.63;;
1054;SDS011;516;51.482;7.120;2023-03-01T15:21:48;21.57;;;20.07;;
1054;SDS011;516;51.482;7.120;2023-03-01T15:30:57;24.13;;;22.63;;
1054;SDS011;516;51.482;7.120;2023-03-01T15:37:35;22.00;;;20.50;;
1054;SDS011;516;51.482;7.120;2023-03-01T15:43:52;22.50;;;21.07;;
1054;SDS011;516;51.482;7.120;2023-03-01T15:49:42;23.50;;;21.70;;
1054;SDS011;516;51.482;7.120;2023-03-01T15:55:31;22.93;;;21.37;;
1054;SDS011;516;51.482;7.120;2023-03-01T16:01:20;22.13;;;20.20;;
1054;SDS011;516;51.482;7.120;2023-03-01T16:07:08;21.20;;;19.80;;
1054;SDS011;516;51.482;7.120;2023-03-01T16:12:56;21.83;;;20.43;;
1054;SDS011;516;51.482;7.120;2023-03-01T16:18:47;20.07;;;18.70;;
1054;SDS011;516;51.482;7.120;2023-03-01T16:24:35;18.60;;;17.17;;
1054;SDS011;516;51.482;7.120;2023-03-01T16:30:23;20.33;;;18.80;;
1054;SDS011;516;51.482;7.120;2023-03-01T16:36:11;17.93;;;16.77;;
1054;SDS011;516;51.482;7.120;2023-03-01T16:41:59;20.50;;;19.07;;
1054;SDS011;516;51.482;7.120;2023-03-01T16:47:47;20.33;;;18.93;;
1054;SDS011;516;51.482;7.120;2023-03-01T16:53:35;22.40;;;20.67;;
1054;SDS011;516;51.482;7.120;2023-03-01T16:59:24;20.47;;;19.17;;
1054;SDS011;516;51.482;7.120;2023-03-01T17:05:12;20.17;;;18.77;;
1054;SDS011;516;51.482;7.120;2023-03-01T17:11:04;22.50;;;20.80;;
1054;SDS011;516;51.482;7.120;2023-03-01T17:16:55;23.13;;;19.90;;
1054;SDS011;516;51.482;7.120;2023-03-01T17:22:43;23.17;;;21.30;;
1054;SDS011;516;51.482;7.120;2023-03-01T17:31:53;24.20;;;22.40;;
1054;SDS011;516;51.482;7.120;2023-03-01T17:37:42;23.27;;;21.20;;
1054;SDS011;516;51.482;7.120;2023-03-01T17:43:32;21.33;;;19.60;;
1054;SDS011;516;51.482;7.120;2023-03-01T17:49:22;21.20;;;19.57;;
1054;SDS011;516;51.482;7.120;2023-03-01T17:55:10;22.87;;;21.07;;
1054;SDS011;516;51.482;7.120;2023-03-01T18:01:11;23.47;;;21.43;;
1054;SDS011;516;51.482;7.120;2023-03-01T18:07:03;23.50;;;21.70;;
1054;SDS011;516;51.482;7.120;2023-03-01T18:12:51;23.37;;;21.37;;
1054;SDS011;516;51.482;7.120;2023-03-01T18:18:39;22.67;;;20.83;;
1054;SDS011;516;51.482;7.120;2023-03-01T18:24:27;22.60;;;20.80;;
1054;SDS011;516;51.482;7.120;2023-03-01T18:29:49;24.13;;;22.20;;
1054;SDS011;516;51.482;7.120;2023-03-01T18:35:37;24.43;;;22.33;;
1054;SDS011;516;51.482;7.120;2023-03-01T18:41:25;23.87;;;21.93;;
1054;SDS011;516;51.482;7.120;2023-03-01T18:47:14;26.93;;;24.20;;
1054;SDS011;516;51.482;7.120;2023-03-01T18:53:02;25.63;;;23.63;;
1054;SDS011;516;51.482;7.120;2023-03-01T18:58:49;25.00;;;22.67;;
1054;SDS011;516;51.482;7.120;2023-03-01T19:04:37;24.87;;;22.67;;
1054;SDS011;516;51.482;7.120;2023-03-01T19:10:25;25.53;;;23.00;;
1054;SDS011;516;51.482;7.120;2023-03-01T19:16:15;23.10;;;21.00;;
1054;SDS011;516;51.482;7.120;2023-03-01T19:22:05;23.40;;;21.90;;
1054;SDS011;516;51.482;7.120;2023-03-01T19:37:40;23.20;;;21.10;;
1054;SDS011;516;51.482;7.120;2023-03-01T19:43:28;22.80;;;20.97;;
1054;SDS011;516;51.482;7.120;2023-03-01T19:49:16;23.70;;;21.37;;
1054;SDS011;516;51.482;7.120;2023-03-01T19:55:03;22.57;;;20.87;;
1054;SDS011;516;51.482;7.120;2023-03-01T20:00:52;22.87;;;20.67;;
1054;SDS011;516;51.482;7.120;2023-03-01T20:06:45;23.67;;;21.40;;
1054;SDS011;516;51.482;7.120;2023-03-01T20:12:34;21.20;;;19.60;;
1054;SDS011;516;51.482;7.120;2023-03-01T20:18:23;23.40;;;21.60;;
1054;SDS011;516;51.482;7.120;2023-03-01T20:24:12;23.07;;;21.10;;
1054;SDS011;516;51.482;7.120;2023-03-01T20:29:48;25.00;;;22.30;;
1054;SDS011;516;51.482;7.120;2023-03-01T20:35:36;24.43;;;22.37;;
1054;SDS011;516;51.482;7.120;2023-03-01T20:41:27;24.67;;;22.30;;
1054;SDS011;516;51.482;7.120;2023-03-01T20:47:15;24.37;;;22.53;;
1054;SDS011;516;51.482;7.120;2023-03-01T20:53:03;24.70;;;22.70;;
1054;SDS011;516;51.482;7.120;2023-03-01T20:58:50;22.90;;;21.20;;
1054;SDS011;516;51.482;7.120;2023-03-01T21:04:40;23.43;;;21.60;;
1054;SDS011;516;51.482;7.120;2023-03-01T21:10:29;23.07;;;21.37;;
1054;SDS011;516;51.482;7.120;2023-03-01T21:16:18;23.27;;;21.00;;
1054;SDS011;516;51.482;7.120;2023-03-01T21:22:06;24.43;;;21.70;;
1054;SDS011;516;51.482;7.120;2023-03-01T21:37:41;23.73;;;21.63;;
1054;SDS011;516;51.482;7.120;2023-03-01T21:43:28;22.90;;;21.07;;
1054;SDS011;516;51.482;7.120;2023-03-01T21:49:16;22.13;;;20.20;;
1054;SDS011;516;51.482;7.120;2023-03-01T21:55:05;22.40;;;20.50;;
1054;SDS011;516;51.482;7.120;2023-03-01T22:00:54;22.73;;;21.03;;
1054;SDS011;516;51.482;7.120;2023-03-01T22:06:43;22.23;;;20.33;;
1054;SDS011;516;51.482;7.120;2023-03-01T22:12:32;22.00;;;20.33;;
1054;SDS011;516;51.482;7.120;2023-03-01T22:18:20;22.37;;;20.03;;
1054;SDS011;516;51.482;7.120;2023-03-01T22:24:08;20.73;;;19.07;;
1054;SDS011;516;51.482;7.120;2023-03-01T22:29:48;21.93;;;20.20;;
1054;SDS011;516;51.482;7.120;2023-03-01T22:35:39;21.67;;;20.17;;
1054;SDS011;516;51.482;7.120;2023-03-01T22:41:28;22.83;;;20.73;;
1054;SDS011;516;51.482;7.120;2023-03-01T22:47:18;21.27;;;19.70;;
1054;SDS011;516;51.482;7.120;2023-03-01T22:53:06;20.03;;;18.73;;
1054;SDS011;516;51.482;7.120;2023-03-01T22:58:54;19.10;;;17.80;;
1054;SDS011;516;51.482;7.120;2023-03-01T23:04:43;21.03;;;19.30;;
1054;SDS011;516;51.482;7.120;2023-03-01T23:10:33;20.20;;;18.60;;
1054;SDS011;516;51.482;7.120;2023-03-01T23:16:21;21.50;;;19.63;;
1054;SDS011;516;51.482;7.120;2023-03-01T23:22:12;20.70;;;18.90;;
1054;SDS011;516;51.482;7.120;2023-03-01T23:37:40;19.73;;;18.23;;
1054;SDS011;516;51.482;7.120;2023-03-01T23:43:28;19.73;;;18.27;;
1054;SDS011;516;51.482;7.120;2023-03-01T23:49:17;21.10;;;19.33;;
1054;SDS011;516;51.482;7.120;2023-03-01T23:55:07;20.80;;;19.20;;
